Time;durP1;ratioP1;P1;durP2;ratioP2;P2;SDS_P1;SDS_P2;PMS_P1;PMS_P2;Temp;Humidity;BMP_temperature;BMP_pressure;BME280_temperature;BME280_humidity;BME280_pressure;Samples;Min_cycle;Max_cycle;Signal;HPM_P1;HPM_P2
2022/05/03 00:02:15;;;;;;;13.63;12.43;;;12.00;99.90;;;;;;4908802;29;20455;-81
2022/05/03 00:05:02;;;;;;;13.83;12.70;;;12.00;99.90;;;;;;4902696;29;20831;-79
2022/05/03 00:07:35;;;;;;;13.83;12.57;;;12.10;99.90;;;;;;4916494;29;20477;-80
2022/05/03 00:10:06;;;;;;;16.70;15.23;;;12.10;99.90;;;;;;4921376;29;20454;-80
2022/05/03 00:12:41;;;;;;;15.27;13.77;;;11.90;99.90;;;;;;4906746;29;20515;-79
2022/05/03 00:15:09;;;;;;;16.17;14.23;;;11.70;99.90;;;;;;4903344;29;20458;-81
2022/05/03 00:17:38;;;;;;;14.17;12.97;;;11.80;99.90;;;;;;4901885;29;20455;-81
2022/05/03 00:20:05;;;;;;;14.83;13.60;;;11.80;99.90;;;;;;4915220;29;20462;-81
2022/05/03 00:22:33;;;;;;;14.63;13.50;;;11.80;99.90;;;;;;4920804;29;20454;-81
2022/05/03 00:25:00;;;;;;;14.70;13.20;;;11.70;99.90;;;;;;4908748;29;20493;-80
2022/05/03 00:27:28;;;;;;;14.30;13.00;;;11.60;99.90;;;;;;4909392;29;20465;-80
2022/05/03 00:29:57;;;;;;;14.47;13.10;;;11.50;99.90;;;;;;4920388;29;20860;-79
2022/05/03 00:32:26;;;;;;;15.03;13.67;;;11.60;99.90;;;;;;4914304;29;20580;-80
2022/05/03 00:34:54;;;;;;;14.67;13.33;;;11.60;99.90;;;;;;4901854;29;20451;-80
2022/05/03 00:37:21;;;;;;;14.67;12.90;;;11.60;99.90;;;;;;4907841;29;20469;-80
2022/05/03 00:39:48;;;;;;;13.87;12.27;;;11.40;99.90;;;;;;4920587;29;20455;-80
2022/05/03 00:42:19;;;;;;;12.10;11.10;;;11.50;99.90;;;;;;4915598;29;20458;-81
2022/05/03 00:44:58;;;;;;;12.70;11.60;;;11.50;99.90;;;;;;4901776;29;20935;-80
2022/05/03 00:47:34;;;;;;;14.03;12.83;;;11.50;99.90;;;;;;4907078;29;20485;-80
2022/05/03 00:50:05;;;;;;;13.80;12.73;;;11.30;99.90;;;;;;4920203;29;20857;-79
2022/05/03 00:52:40;;;;;;;15.33;14.03;;;11.40;99.90;;;;;;4913681;29;20494;-80
2022/05/03 00:55:30;;;;;;;14.67;13.33;;;11.30;99.90;;;;;;4902159;29;20461;-80
2022/05/03 00:58:18;;;;;;;14.10;12.93;;;11.30;99.90;;;;;;4907444;29;20461;-80
2022/05/03 01:00:56;;;;;;;16.03;14.10;;;11.20;99.90;;;;;;4904621;29;20461;-81
2022/05/03 01:03:30;;;;;;;15.87;14.37;;;11.20;99.90;;;;;;4901643;29;20831;-80
2022/05/03 01:06:09;;;;;;;15.33;14.00;;;11.20;99.90;;;;;;4913053;29;20477;-80
2022/05/03 01:08:43;;;;;;;17.80;16.27;;;11.20;99.90;;;;;;4919348;29;20452;-81
2022/05/03 01:11:19;;;;;;;17.53;15.73;;;11.20;99.90;;;;;;4906410;29;20989;-80
2022/05/03 01:13:53;;;;;;;16.33;14.90;;;11.10;99.90;;;;;;4901896;29;20957;-79
2022/05/03 01:16:27;;;;;;;18.00;16.30;;;11.10;99.90;;;;;;4902264;29;20483;-79
2022/05/03 01:19:02;;;;;;;13.10;11.90;;;11.10;99.90;;;;;;4901560;29;20518;-80
2022/05/03 01:21:45;;;;;;;14.30;13.10;;;11.20;99.90;;;;;;4919338;29;20452;-80
2022/05/03 01:24:29;;;;;;;14.77;13.33;;;11.20;99.90;;;;;;4920677;29;20453;-81
2022/05/03 01:27:25;;;;;;;15.57;14.10;;;11.10;99.90;;;;;;4901589;29;20853;-80
2022/05/03 01:29:53;;;;;;;16.00;14.40;;;11.10;99.90;;;;;;4905844;29;20461;-80
2022/05/03 01:32:21;;;;;;;14.53;13.17;;;11.00;99.90;;;;;;4920493;29;20685;-80
2022/05/03 01:34:48;;;;;;;14.30;13.10;;;10.90;99.90;;;;;;4916336;29;20462;-80
2022/05/03 01:37:53;;;;;;;14.30;12.87;;;10.90;99.90;;;;;;4901295;29;20486;-81
2022/05/03 01:40:31;;;;;;;15.17;13.73;;;11.00;99.90;;;;;;4898281;29;20462;-80
2022/05/03 01:43:12;;;;;;;14.63;13.30;;;10.90;99.90;;;;;;4916314;29;20458;-80
2022/05/03 01:45:44;;;;;;;16.33;14.77;;;11.00;99.90;;;;;;4927463;23;20468;-82
2022/05/03 01:48:18;;;;;;;16.30;14.70;;;11.00;99.90;;;;;;4901707;29;20462;-81
2022/05/03 01:50:53;;;;;;;15.20;13.70;;;10.90;99.90;;;;;;4907176;29;20963;-81
2022/05/03 01:53:27;;;;;;;14.53;13.03;;;10.90;99.90;;;;;;4921159;29;20461;-81
2022/05/03 01:56:19;;;;;;;16.70;15.20;;;10.80;99.90;;;;;;4920375;29;20482;-81
2022/05/03 01:59:05;;;;;;;16.23;14.50;;;10.80;99.90;;;;;;4920667;29;20462;-82
2022/05/03 02:01:56;;;;;;;14.43;13.20;;;10.80;99.90;;;;;;4909339;29;20455;-81
2022/05/03 02:05:05;;;;;;;15.47;14.00;;;10.80;99.90;;;;;;4910505;29;20452;-81
2022/05/03 02:07:52;;;;;;;14.40;13.00;;;10.70;99.90;;;;;;4884920;29;20846;-82
2022/05/03 02:10:27;;;;;;;14.33;13.20;;;10.70;99.90;;;;;;4902022;29;20543;-80
2022/05/03 02:12:58;;;;;;;14.83;13.57;;;10.70;99.90;;;;;;4901606;29;20493;-82
2022/05/03 02:15:39;;;;;;;13.53;12.40;;;10.70;99.90;;;;;;4901699;29;20452;-81
2022/05/03 02:18:17;;;;;;;15.13;13.73;;;10.70;99.90;;;;;;4901895;29;20464;-82
2022/05/03 02:21:11;;;;;;;15.07;13.67;;;10.70;99.90;;;;;;4901510;29;20465;-81
2022/05/03 02:23:48;;;;;;;13.83;12.57;;;10.60;99.90;;;;;;4901516;29;20439;-81
2022/05/03 02:26:26;;;;;;;13.83;12.70;;;10.60;99.90;;;;;;4901608;29;20526;-80
2022/05/03 02:28:56;;;;;;;14.57;13.27;;;10.60;99.90;;;;;;4903751;29;20472;-81
2022/05/03 02:31:32;;;;;;;15.80;14.20;;;10.60;99.90;;;;;;4919631;29;20497;-81
2022/05/03 02:34:08;;;;;;;14.10;12.70;;;10.50;99.90;;;;;;4882288;29;20451;-81
2022/05/03 02:36:42;;;;;;;15.20;13.80;;;10.50;99.90;;;;;;4882731;29;20479;-81
2022/05/03 02:39:13;;;;;;;14.10;12.80;;;10.50;99.90;;;;;;4920482;29;20446;-81
2022/05/03 02:41:40;;;;;;;15.97;14.57;;;10.40;99.90;;;;;;4919211;29;20464;-81
2022/05/03 02:44:07;;;;;;;15.47;14.07;;;10.10;99.90;;;;;;4900726;29;20556;-81
2022/05/03 02:46:54;;;;;;;16.35;15.05;;;9.80;99.90;;;;;;4900733;29;20496;-82
2022/05/03 02:49:39;;;;;;;17.60;16.00;;;9.80;99.90;;;;;;4919992;29;20711;-81
2022/05/03 02:52:15;;;;;;;17.25;15.65;;;9.70;99.90;;;;;;4882295;29;20477;-81
2022/05/03 02:54:55;;;;;;;14.95;13.10;;;9.40;99.90;;;;;;4882609;29;20201;-82
2022/05/03 02:57:32;;;;;;;16.30;14.77;;;9.40;99.90;;;;;;4919539;29;20597;-81
2022/05/03 03:03:05;;;;;;;16.70;15.20;;;9.60;99.90;;;;;;4916011;29;20453;-81
2022/05/03 03:05:38;;;;;;;16.40;14.75;;;9.70;99.90;;;;;;4900808;29;20220;-82
2022/05/03 03:08:05;;;;;;;17.60;16.05;;;9.80;99.90;;;;;;4900864;29;20275;-80
2022/05/03 03:10:34;;;;;;;16.70;15.20;;;9.80;99.90;;;;;;4900309;29;20212;-81
2022/05/03 03:13:10;;;;;;;16.03;14.67;;;9.80;99.90;;;;;;4907343;29;20487;-81
2022/05/03 03:15:40;;;;;;;18.10;16.45;;;9.80;99.90;;;;;;4919543;29;20495;-82
2022/05/03 03:18:14;;;;;;;16.33;14.75;;;9.80;99.90;;;;;;4919684;29;20223;-82
2022/05/03 03:20:46;;;;;;;18.45;16.80;;;9.90;99.90;;;;;;4918897;29;20220;-80
2022/05/03 03:23:15;;;;;;;17.90;16.40;;;9.90;99.90;;;;;;4909663;29;20204;-81
2022/05/03 03:25:43;;;;;;;18.65;17.00;;;9.80;99.90;;;;;;4906111;29;20476;-81
2022/05/03 03:28:13;;;;;;;18.38;16.58;;;9.50;99.90;;;;;;4914179;29;20201;-81
2022/05/03 03:30:42;;;;;;;19.30;17.33;;;9.50;99.90;;;;;;4900276;29;20217;-82
2022/05/03 03:33:09;;;;;;;15.93;14.30;;;9.60;99.90;;;;;;4903888;29;20547;-82
2022/05/03 03:35:38;;;;;;;16.77;15.07;;;9.70;99.90;;;;;;4919208;29;20460;-81
2022/05/03 03:38:06;;;;;;;17.07;15.57;;;9.70;99.90;;;;;;4916090;29;20670;-81
2022/05/03 03:40:33;;;;;;;19.77;17.83;;;9.70;99.90;;;;;;4899336;29;20967;-80
2022/05/03 03:43:00;;;;;;;18.33;16.43;;;9.70;99.90;;;;;;4899911;29;20204;-81
2022/05/03 03:45:27;;;;;;;18.30;16.40;;;9.70;99.90;;;;;;4899743;29;20464;-81
2022/05/03 03:47:54;;;;;;;19.40;17.70;;;9.70;99.90;;;;;;4908660;29;20212;-81
2022/05/03 03:50:23;;;;;;;19.03;17.07;;;9.70;99.90;;;;;;4918241;29;20461;-82
2022/05/03 03:52:50;;;;;;;17.43;15.73;;;9.70;99.90;;;;;;4918157;29;21033;-80
2022/05/03 03:55:19;;;;;;;18.23;16.63;;;9.70;99.90;;;;;;4915769;29;20474;-80
2022/05/03 03:57:46;;;;;;;17.60;16.00;;;9.80;99.90;;;;;;4900231;29;20465;-81
2022/05/03 04:00:15;;;;;;;21.57;18.53;;;9.80;99.90;;;;;;4899702;29;20472;-82
2022/05/03 04:02:42;;;;;;;18.88;16.98;;;9.60;99.90;;;;;;4904221;29;20460;-80
2022/05/03 04:05:15;;;;;;;19.93;16.90;;;9.60;99.90;;;;;;4918032;29;20208;-82
2022/05/03 04:07:42;;;;;;;18.30;16.60;;;9.70;99.90;;;;;;4918489;29;20473;-81
2022/05/03 04:10:09;;;;;;;18.27;16.47;;;9.70;99.90;;;;;;4916643;29;20460;-82
2022/05/03 04:12:38;;;;;;;17.87;16.23;;;9.70;99.90;;;;;;4899581;29;20503;-81
2022/05/03 04:15:07;;;;;;;16.90;15.40;;;9.70;99.90;;;;;;4899568;29;20933;-82
2022/05/03 04:17:34;;;;;;;17.17;15.60;;;9.70;99.90;;;;;;4918182;29;20480;-81
2022/05/03 04:20:01;;;;;;;17.40;15.90;;;9.70;99.90;;;;;;4918123;29;20464;-82
2022/05/03 04:22:29;;;;;;;18.40;16.50;;;9.60;99.90;;;;;;4900102;29;20479;-81
2022/05/03 04:24:56;;;;;;;17.57;15.87;;;9.70;99.90;;;;;;4881180;29;20464;-81
2022/05/03 04:27:23;;;;;;;18.80;16.80;;;9.60;99.90;;;;;;4880988;29;20478;-82
2022/05/03 04:29:53;;;;;;;20.38;18.58;;;9.50;99.90;;;;;;4912147;29;20432;-82
2022/05/03 04:32:20;;;;;;;18.67;16.97;;;9.40;99.90;;;;;;4918242;29;20231;-82
2022/05/03 04:34:47;;;;;;;18.80;17.10;;;9.50;99.90;;;;;;4915494;29;20467;-81
2022/05/03 04:37:14;;;;;;;21.07;18.97;;;9.50;99.90;;;;;;4880326;29;20716;-81
2022/05/03 04:39:40;;;;;;;23.63;19.52;;;9.60;99.90;;;;;;4908081;29;20516;-80
2022/05/03 04:42:08;;;;;;;20.97;18.90;;;9.60;99.90;;;;;;4917718;29;20571;-82
2022/05/03 04:44:35;;;;;;;20.85;18.75;;;9.60;99.90;;;;;;4917295;29;20468;-82
2022/05/03 04:47:04;;;;;;;20.65;18.55;;;9.60;99.90;;;;;;4909070;29;20239;-81
2022/05/03 04:49:31;;;;;;;19.77;17.80;;;9.40;99.90;;;;;;4899379;29;20272;-81
2022/05/03 04:51:58;;;;;;;22.20;19.63;;;9.20;99.90;;;;;;4899410;29;20258;-82
2022/05/03 04:54:24;;;;;;;22.43;20.23;;;9.30;99.90;;;;;;4899663;29;20209;-81
2022/05/03 04:56:54;;;;;;;20.70;18.60;;;9.50;99.90;;;;;;4914771;29;20803;-81
2022/05/03 04:59:20;;;;;;;18.70;17.00;;;9.60;99.90;;;;;;4917569;29;20221;-81
2022/05/03 05:01:47;;;;;;;19.60;17.70;;;9.70;99.90;;;;;;4903525;29;20460;-82
2022/05/03 05:04:16;;;;;;;20.93;18.73;;;9.80;99.90;;;;;;4899471;29;20469;-82
2022/05/03 05:06:43;;;;;;;19.03;17.23;;;9.90;99.90;;;;;;4907589;29;20484;-81
2022/05/03 05:09:09;;;;;;;21.23;19.23;;;10.00;99.90;;;;;;4917505;29;20468;-81
2022/05/03 05:11:36;;;;;;;21.10;19.10;;;10.10;99.90;;;;;;4915922;29;20464;-82
2022/05/03 05:14:03;;;;;;;19.77;17.88;;;10.20;99.90;;;;;;4898970;29;20216;-81
2022/05/03 05:16:30;;;;;;;19.90;17.90;;;10.30;99.90;;;;;;4898967;29;20628;-82
2022/05/03 05:18:56;;;;;;;20.37;18.37;;;10.30;99.90;;;;;;4880616;29;20458;-81
2022/05/03 05:21:25;;;;;;;19.87;18.20;;;10.40;99.90;;;;;;4880636;29;20830;-81
2022/05/03 05:23:52;;;;;;;19.33;17.43;;;10.50;99.90;;;;;;4902205;29;20467;-81
2022/05/03 05:26:19;;;;;;;21.70;19.70;;;10.60;99.90;;;;;;4902321;29;20561;-82
2022/05/03 05:28:46;;;;;;;21.20;19.20;;;10.70;99.90;;;;;;4902400;29;20453;-82
2022/05/03 05:31:13;;;;;;;19.37;17.47;;;10.80;99.90;;;;;;4910442;29;20456;-82
2022/05/03 05:33:39;;;;;;;20.87;18.83;;;10.90;99.90;;;;;;4921104;29;20519;-82
2022/05/03 05:36:07;;;;;;;18.57;16.93;;;10.90;99.90;;;;;;4914315;29;20483;-82
2022/05/03 05:38:35;;;;;;;19.23;17.47;;;11.10;99.90;;;;;;4903285;29;20462;-82
2022/05/03 05:41:12;;;;;;;21.07;19.07;;;11.20;99.90;;;;;;4902869;29;20842;-81
2022/05/03 05:43:39;;;;;;;21.37;19.37;;;11.30;99.90;;;;;;4902487;29;21066;-83
2022/05/03 05:46:06;;;;;;;19.27;17.40;;;11.40;99.90;;;;;;4902445;29;20541;-81
2022/05/03 05:48:33;;;;;;;18.27;16.67;;;11.50;99.90;;;;;;4902021;29;20462;-81
2022/05/03 05:51:00;;;;;;;19.83;17.97;;;11.70;99.90;;;;;;4901964;29;20461;-82
2022/05/03 05:53:32;;;;;;;20.37;18.50;;;11.80;99.90;;;;;;4901741;29;20497;-82
2022/05/03 05:56:00;;;;;;;18.17;16.50;;;12.00;99.90;;;;;;4916258;29;21110;-84
2022/05/03 05:58:27;;;;;;;19.87;17.90;;;12.20;99.90;;;;;;4921316;29;20462;-81
2022/05/03 06:00:54;;;;;;;16.90;15.50;;;12.40;99.90;;;;;;4920375;29;20454;-82
2022/05/03 06:03:22;;;;;;;18.77;17.07;;;12.70;99.90;;;;;;4921613;29;20459;-82
2022/05/03 06:05:49;;;;;;;17.50;16.00;;;12.90;99.90;;;;;;4920795;29;20569;-82
2022/05/03 06:08:16;;;;;;;18.67;16.77;;;13.10;99.90;;;;;;4921123;29;20467;-81
2022/05/03 06:10:42;;;;;;;19.40;17.57;;;13.40;99.90;;;;;;4904051;29;20834;-82
2022/05/03 06:14:00;;;;;;;17.33;15.73;;;13.60;99.90;;;;;;4904464;29;20498;-82
2022/05/03 06:19:14;;;;;;;25.03;17.13;;;14.10;99.90;;;;;;4901178;29;20480;-82
2022/05/03 06:21:41;;;;;;;18.43;16.93;;;14.30;99.90;;;;;;4902353;29;20447;-83
2022/05/03 06:24:08;;;;;;;15.40;14.00;;;14.40;99.90;;;;;;4901654;29;20448;-81
2022/05/03 06:26:35;;;;;;;16.93;15.43;;;14.60;99.90;;;;;;4902235;29;20478;-84
2022/05/03 06:29:05;;;;;;;14.50;13.27;;;14.70;99.90;;;;;;4902972;29;20455;-84
2022/05/03 06:31:32;;;;;;;15.93;14.40;;;15.00;99.90;;;;;;4900331;29;20740;-80
2022/05/03 06:33:59;;;;;;;15.90;14.30;;;15.10;99.90;;;;;;4899728;29;21017;-80
2022/05/03 06:36:27;;;;;;;14.07;12.87;;;15.30;99.90;;;;;;4919816;29;20487;-79
2022/05/03 06:38:54;;;;;;;14.63;13.40;;;15.50;99.90;;;;;;4904187;29;20452;-81
2022/05/03 06:41:20;;;;;;;15.00;13.80;;;15.60;99.90;;;;;;4911590;29;20463;-81
2022/05/03 06:43:47;;;;;;;13.83;12.63;;;15.70;99.90;;;;;;4916747;29;20473;-81
2022/05/03 06:46:15;;;;;;;15.50;14.30;;;15.70;99.90;;;;;;4921335;29;20834;-82
2022/05/03 06:48:42;;;;;;;14.13;13.07;;;15.70;99.90;;;;;;4906005;29;20525;-83
2022/05/03 06:51:13;;;;;;;14.13;13.07;;;15.90;99.90;;;;;;4904260;29;20464;-84
2022/05/03 06:53:43;;;;;;;15.13;13.83;;;16.00;99.90;;;;;;4902231;29;20496;-84
2022/05/03 06:56:10;;;;;;;13.63;12.43;;;16.10;99.90;;;;;;4916071;29;20842;-83
2022/05/03 06:58:37;;;;;;;13.53;12.17;;;16.20;99.90;;;;;;4922554;29;20483;-84
2022/05/03 07:01:10;;;;;;;13.20;10.87;;;16.20;99.90;;;;;;4911993;29;20455;-83
2022/05/03 07:03:39;;;;;;;14.40;12.90;;;16.30;99.90;;;;;;4905018;29;20452;-84
2022/05/03 07:06:06;;;;;;;13.53;12.30;;;16.40;99.90;;;;;;4904908;29;20480;-83
2022/05/03 07:08:33;;;;;;;13.43;12.23;;;16.30;99.90;;;;;;4905169;29;21008;-83
2022/05/03 07:11:00;;;;;;;11.60;10.63;;;16.40;99.90;;;;;;4904574;29;20528;-84
2022/05/03 07:13:28;;;;;;;12.80;11.77;;;16.40;99.90;;;;;;4905508;29;20501;-84
2022/05/03 07:15:56;;;;;;;13.70;12.50;;;16.40;99.90;;;;;;4905416;29;20528;-85
2022/05/03 07:23:54;;;;;;;12.07;11.00;;;16.60;99.90;;;;;;4906082;29;20418;-84
2022/05/03 07:26:21;;;;;;;11.03;10.03;;;16.70;99.90;;;;;;4912053;29;20476;-85
2022/05/03 07:28:48;;;;;;;11.20;10.10;;;16.70;99.90;;;;;;4913440;29;20468;-85
2022/05/03 07:31:15;;;;;;;13.10;12.10;;;16.90;99.90;;;;;;4906524;29;20492;-84
2022/05/03 07:33:42;;;;;;;12.07;11.07;;;17.10;99.90;;;;;;4904277;29;20578;-84
2022/05/03 07:36:10;;;;;;;11.27;10.30;;;17.20;99.90;;;;;;4904671;29;20477;-84
2022/05/03 07:38:37;;;;;;;13.10;11.60;;;17.40;99.90;;;;;;4904290;29;20456;-83
2022/05/03 07:41:05;;;;;;;12.33;11.23;;;17.60;99.90;;;;;;4903536;29;20479;-85
2022/05/03 07:43:32;;;;;;;15.60;14.00;;;17.70;99.90;;;;;;4903368;29;20465;-85
2022/05/03 07:45:59;;;;;;;13.03;12.00;;;17.80;99.80;;;;;;4904238;29;20501;-85
2022/05/03 07:48:26;;;;;;;12.23;11.23;;;17.90;99.60;;;;;;4905865;29;20449;-85
2022/05/03 07:50:53;;;;;;;11.17;10.40;;;18.00;98.70;;;;;;4907917;29;20458;-87
2022/05/03 07:53:21;;;;;;;10.93;9.90;;;18.10;98.30;;;;;;4907388;29;20493;-85
2022/05/03 07:55:49;;;;;;;12.47;11.47;;;18.20;98.50;;;;;;4907383;29;20482;-86
2022/05/03 07:58:18;;;;;;;12.03;10.87;;;18.20;98.50;;;;;;4907557;29;20469;-87
2022/05/03 08:00:45;;;;;;;11.87;10.67;;;18.30;97.30;;;;;;4907841;29;20459;-85
2022/05/03 08:03:13;;;;;;;10.63;9.73;;;18.30;97.30;;;;;;4910843;29;20459;-84
2022/05/03 08:05:40;;;;;;;12.60;11.50;;;18.40;97.70;;;;;;4920757;29;20492;-84
2022/05/03 08:08:07;;;;;;;11.87;10.83;;;18.40;97.60;;;;;;4920696;29;20505;-86
2022/05/03 08:10:35;;;;;;;12.10;11.00;;;18.50;97.80;;;;;;4921061;29;20459;-82
2022/05/03 08:13:02;;;;;;;13.33;11.00;;;18.50;96.80;;;;;;4920446;29;20493;-83
2022/05/03 08:15:29;;;;;;;12.87;11.60;;;18.50;97.30;;;;;;4920781;29;20529;-83
2022/05/03 08:17:56;;;;;;;10.97;10.10;;;18.50;97.10;;;;;;4921644;29;20445;-82
2022/05/03 08:20:23;;;;;;;12.10;11.20;;;18.60;96.80;;;;;;4920714;29;20499;-84
2022/05/03 08:22:49;;;;;;;11.10;10.20;;;18.70;96.50;;;;;;4921222;29;20455;-84
2022/05/03 08:25:16;;;;;;;11.63;10.73;;;18.70;95.90;;;;;;4921416;29;20459;-83
2022/05/03 08:27:44;;;;;;;11.47;10.17;;;18.70;96.20;;;;;;4921190;29;20510;-84
2022/05/03 08:30:12;;;;;;;9.83;9.10;;;18.80;97.00;;;;;;4921332;29;20447;-84
2022/05/03 08:32:38;;;;;;;11.27;10.47;;;19.00;97.00;;;;;;4921308;29;20449;-84
2022/05/03 08:35:06;;;;;;;10.47;9.67;;;19.20;96.60;;;;;;4921533;29;20454;-84
2022/05/03 08:43:07;;;;;;;10.27;9.37;;;19.50;94.60;;;;;;4921048;29;21030;-83
2022/05/03 08:45:34;;;;;;;10.97;10.07;;;19.50;94.30;;;;;;4920938;29;20889;-84
2022/05/03 08:48:02;;;;;;;9.70;8.90;;;19.40;94.80;;;;;;4921244;29;20471;-84
2022/05/03 08:50:30;;;;;;;10.57;9.67;;;19.30;94.70;;;;;;4920763;29;20510;-84
2022/05/03 08:53:00;;;;;;;9.93;8.87;;;19.30;94.20;;;;;;4920760;29;20457;-85
2022/05/03 08:55:27;;;;;;;9.60;8.70;;;19.10;94.50;;;;;;4920574;29;20526;-85
2022/05/03 08:57:55;;;;;;;10.97;10.07;;;18.70;95.10;;;;;;4924963;29;20439;-84
2022/05/03 09:00:24;;;;;;;9.83;9.03;;;18.60;95.40;;;;;;4924350;29;20468;-84
2022/05/03 09:02:52;;;;;;;7.60;7.10;;;18.50;95.20;;;;;;4924662;29;20445;-84
2022/05/03 09:05:22;;;;;;;9.37;8.57;;;18.60;95.70;;;;;;4924980;29;20450;-84
2022/05/03 09:07:50;;;;;;;10.13;9.23;;;18.40;94.60;;;;;;4924170;29;20446;-85
2022/05/03 09:10:19;;;;;;;9.77;8.87;;;18.50;95.50;;;;;;4924509;29;20446;-84
2022/05/03 09:12:46;;;;;;;9.50;8.80;;;18.70;97.10;;;;;;4921861;29;20435;-86
2022/05/03 09:15:14;;;;;;;9.00;8.30;;;18.80;96.90;;;;;;4909640;29;20509;-87
2022/05/03 09:17:44;;;;;;;9.67;8.80;;;18.70;94.90;;;;;;4907653;29;20494;-86
2022/05/03 09:26:12;;;;;;;4.40;4.10;;;19.20;93.10;;;;;;4849210;29;20486;-86
2022/05/03 09:28:45;;;;;;;4.93;4.00;;;19.30;92.30;;;;;;4849227;29;20457;-86
2022/05/03 09:31:12;;;;;;;4.10;3.80;;;19.40;91.70;;;;;;4878808;29;20468;-86
2022/05/03 09:33:40;;;;;;;4.00;3.70;;;19.60;91.80;;;;;;4906119;29;20494;-85
2022/05/03 09:36:11;;;;;;;4.60;4.30;;;19.80;89.40;;;;;;4906297;29;20475;-85
2022/05/03 09:38:47;;;;;;;4.03;3.73;;;19.90;91.60;;;;;;4905821;29;20945;-85
2022/05/03 09:41:15;;;;;;;4.87;4.57;;;20.00;90.20;;;;;;4906108;29;20451;-86
2022/05/03 09:44:06;;;;;;;4.40;4.20;;;20.00;88.90;;;;;;4906215;29;20453;-86
2022/05/03 09:46:51;;;;;;;4.10;3.80;;;20.20;88.70;;;;;;4905905;29;20486;-85
2022/05/03 09:49:21;;;;;;;3.53;3.33;;;20.30;88.90;;;;;;4906115;29;20576;-86
2022/05/03 09:51:48;;;;;;;3.90;3.70;;;20.10;82.40;;;;;;4906407;29;20871;-87
2022/05/03 09:54:16;;;;;;;4.80;4.40;;;20.20;85.30;;;;;;4906463;29;20582;-86
2022/05/03 09:56:47;;;;;;;4.40;4.00;;;20.40;87.80;;;;;;4905843;29;20476;-85
2022/05/03 09:59:14;;;;;;;4.53;3.83;;;20.50;89.80;;;;;;4905916;29;20444;-86
2022/05/03 10:01:42;;;;;;;3.63;3.33;;;20.60;87.10;;;;;;4906001;29;20463;-85
2022/05/03 10:04:08;;;;;;;4.77;4.37;;;20.40;84.40;;;;;;4906725;29;20459;-86
2022/05/03 10:06:37;;;;;;;4.70;4.43;;;20.60;82.90;;;;;;4905701;29;20483;-85
2022/05/03 10:09:05;;;;;;;4.33;4.00;;;20.70;82.60;;;;;;4905321;29;20460;-86
2022/05/03 10:11:34;;;;;;;3.70;3.40;;;20.90;81.50;;;;;;4905814;29;20452;-86
2022/05/03 10:14:01;;;;;;;4.60;4.30;;;20.90;80.70;;;;;;4906505;29;20552;-86
2022/05/03 10:22:06;;;;;;;5.13;4.70;;;21.10;82.60;;;;;;4905985;29;20491;-86
2022/05/03 10:24:52;;;;;;;4.67;4.30;;;21.30;84.40;;;;;;4905623;29;20970;-85
2022/05/03 10:27:23;;;;;;;4.87;4.47;;;21.50;86.30;;;;;;4905680;29;20487;-86
2022/05/03 10:30:15;;;;;;;4.53;4.13;;;21.70;79.60;;;;;;4905461;29;20549;-86
2022/05/03 10:32:41;;;;;;;5.07;4.67;;;22.00;82.90;;;;;;4905084;29;20461;-86
2022/05/03 10:35:33;;;;;;;5.10;4.80;;;22.10;78.00;;;;;;4905304;29;20499;-85
2022/05/03 10:38:07;;;;;;;4.80;4.50;;;22.20;77.80;;;;;;4905406;29;20518;-85
2022/05/03 10:40:39;;;;;;;6.20;5.80;;;22.00;76.00;;;;;;4910408;29;20464;-84
2022/05/03 10:43:10;;;;;;;5.50;5.03;;;22.10;77.10;;;;;;4906797;29;20460;-85
2022/05/03 10:45:51;;;;;;;5.30;5.00;;;21.50;76.10;;;;;;4906715;29;20445;-84
2022/05/03 10:48:28;;;;;;;4.90;4.60;;;20.90;75.20;;;;;;4907022;29;20464;-85
2022/05/03 10:50:58;;;;;;;9.50;5.03;;;21.00;79.00;;;;;;4905600;29;20467;-85
2022/05/03 10:53:35;;;;;;;5.50;5.10;;;21.30;82.10;;;;;;4904887;29;20456;-84
2022/05/03 10:56:18;;;;;;;5.40;5.10;;;21.80;83.80;;;;;;4904308;29;20473;-85
2022/05/03 10:59:01;;;;;;;6.40;5.90;;;22.30;81.90;;;;;;4904210;29;20796;-83
2022/05/03 11:01:28;;;;;;;7.53;5.77;;;22.40;77.10;;;;;;4902813;29;20463;-85
2022/05/03 11:04:09;;;;;;;6.23;5.73;;;22.90;77.80;;;;;;4904006;29;20451;-84
2022/05/03 11:06:43;;;;;;;6.30;5.80;;;23.60;77.60;;;;;;4904161;29;20818;-85
2022/05/03 11:09:15;;;;;;;6.70;6.20;;;24.00;70.00;;;;;;4903978;29;20471;-85
2022/05/03 11:11:52;;;;;;;6.00;5.50;;;23.70;67.10;;;;;;4904522;29;20459;-84
2022/05/03 11:14:55;;;;;;;6.10;5.70;;;24.30;69.30;;;;;;4903673;29;20505;-84
2022/05/03 11:17:23;;;;;;;6.30;5.90;;;24.70;67.30;;;;;;4903664;29;20475;-84
2022/05/03 11:20:00;;;;;;;6.90;6.47;;;24.30;64.20;;;;;;4902034;29;20459;-84
2022/05/03 11:22:32;;;;;;;6.63;6.13;;;24.30;65.50;;;;;;4902634;29;20460;-85
2022/05/03 11:25:06;;;;;;;6.07;5.60;;;24.50;66.80;;;;;;4902344;29;20456;-84
2022/05/03 11:27:33;;;;;;;6.13;5.63;;;24.80;66.30;;;;;;4902521;29;20558;-84
2022/05/03 11:30:03;;;;;;;6.20;5.67;;;25.00;66.70;;;;;;4902188;29;20464;-85
2022/05/03 11:32:34;;;;;;;6.97;6.47;;;24.90;63.70;;;;;;4903225;29;20468;-84
2022/05/03 11:35:09;;;;;;;8.83;6.10;;;24.80;63.90;;;;;;4909376;29;20859;-84
2022/05/03 11:37:37;;;;;;;6.07;5.67;;;25.10;66.30;;;;;;4911230;29;21021;-85
2022/05/03 11:40:08;;;;;;;6.80;6.30;;;24.90;62.90;;;;;;4902279;29;20757;-84
2022/05/03 11:42:40;;;;;;;7.60;7.00;;;24.50;61.90;;;;;;4901119;29;20467;-85
2022/05/03 11:45:08;;;;;;;5.80;5.40;;;24.10;62.30;;;;;;4901532;29;20455;-85
2022/05/03 11:47:38;;;;;;;5.87;5.40;;;24.30;64.00;;;;;;4900893;29;20539;-84
2022/05/03 11:50:07;;;;;;;5.23;4.80;;;24.50;66.70;;;;;;4901653;29;20535;-84
2022/05/03 11:58:06;;;;;;;5.13;4.83;;;24.80;61.90;;;;;;4900977;29;20447;-84
2022/05/03 12:00:44;;;;;;;5.30;5.00;;;24.20;59.10;;;;;;4901381;29;20467;-84
2022/05/03 12:03:11;;;;;;;6.00;5.40;;;24.00;60.30;;;;;;4901457;29;20461;-86
2022/05/03 12:05:39;;;;;;;5.93;5.40;;;23.70;60.30;;;;;;4901522;29;20474;-83
2022/05/03 12:08:17;;;;;;;6.10;5.70;;;23.90;63.40;;;;;;4901412;29;21159;-83
2022/05/03 12:10:46;;;;;;;5.13;4.83;;;23.80;62.60;;;;;;4900874;29;20884;-86
2022/05/03 12:13:14;;;;;;;6.20;5.70;;;23.50;62.70;;;;;;4900854;29;20456;-86
2022/05/03 12:15:42;;;;;;;5.63;5.23;;;22.90;62.90;;;;;;4901647;29;20526;-86
2022/05/03 12:18:15;;;;;;;5.83;5.43;;;22.70;63.50;;;;;;4901416;29;20458;-87
2022/05/03 12:20:46;;;;;;;5.70;5.30;;;22.30;63.00;;;;;;4901213;29;20461;-87
2022/05/03 12:23:18;;;;;;;5.40;5.10;;;21.90;65.50;;;;;;4901518;29;20465;-86
2022/05/03 12:25:49;;;;;;;5.37;4.97;;;21.70;65.30;;;;;;4901858;29;20481;-85
2022/05/03 12:28:16;;;;;;;6.40;5.80;;;21.60;64.50;;;;;;4902715;29;20465;-83
2022/05/03 12:30:43;;;;;;;5.10;4.80;;;21.50;64.70;;;;;;4900915;29;20456;-84
2022/05/03 12:33:15;;;;;;;6.60;6.20;;;22.40;67.50;;;;;;4901193;29;20839;-84
2022/05/03 12:35:43;;;;;;;7.83;5.53;;;23.20;62.00;;;;;;4900417;29;21001;-85
2022/05/03 12:38:13;;;;;;;5.67;5.20;;;23.30;61.10;;;;;;4902800;29;20979;-84
2022/05/03 12:40:47;;;;;;;5.97;5.57;;;23.50;60.30;;;;;;4901188;29;20458;-84
2022/05/03 12:43:16;;;;;;;5.97;5.43;;;23.60;62.40;;;;;;4901849;29;20462;-85
2022/05/03 12:45:42;;;;;;;4.67;4.37;;;23.70;66.20;;;;;;4902058;29;21008;-84
2022/05/03 12:48:10;;;;;;;5.40;5.10;;;23.30;67.30;;;;;;4902981;29;20957;-84
2022/05/03 12:50:38;;;;;;;5.30;4.90;;;22.50;69.40;;;;;;4903603;29;20460;-84
2022/05/03 12:53:05;;;;;;;5.47;4.20;;;21.70;70.70;;;;;;4905051;29;20460;-84
2022/05/03 12:55:32;;;;;;;3.90;3.43;;;21.00;69.60;;;;;;4904611;29;20518;-84
2022/05/03 13:00:45;;;;;;;4.30;4.00;;;19.60;72.10;;;;;;4905439;29;20932;-84
2022/05/03 13:03:12;;;;;;;4.10;3.70;;;19.10;76.40;;;;;;4905528;29;20463;-84
2022/05/03 13:05:39;;;;;;;5.23;4.73;;;18.80;81.20;;;;;;4904071;29;20541;-85
2022/05/03 13:08:06;;;;;;;10.43;5.63;;;18.40;85.50;;;;;;4904166;29;20489;-83
2022/05/03 13:10:34;;;;;;;8.67;7.50;;;18.20;92.30;;;;;;4908627;29;20461;-85
2022/05/03 13:13:03;;;;;;;10.10;7.83;;;17.90;97.90;;;;;;4907748;29;20457;-85
2022/05/03 13:15:31;;;;;;;11.00;8.30;;;17.30;99.90;;;;;;4906217;29;20861;-84
2022/05/03 13:17:57;;;;;;;8.63;7.63;;;16.80;99.90;;;;;;4906015;29;20483;-86
2022/05/03 13:20:24;;;;;;;11.47;7.33;;;16.20;99.90;;;;;;4906499;29;20447;-84
2022/05/03 13:22:51;;;;;;;5.90;5.40;;;15.80;99.90;;;;;;4910763;29;20796;-86
2022/05/03 13:25:18;;;;;;;9.23;7.00;;;15.30;99.90;;;;;;4910078;29;20447;-85
2022/05/03 13:27:44;;;;;;;9.23;7.27;;;15.10;99.90;;;;;;4908687;29;20483;-84
2022/05/03 13:30:14;;;;;;;10.63;8.10;;;15.00;99.90;;;;;;4915679;29;20454;-80
2022/05/03 13:32:41;;;;;;;11.00;7.83;;;14.90;99.90;;;;;;4913430;29;20861;-86